createdAt,value
2022-12-27T00:01:40.139Z,98.00
2022-12-27T00:04:08.367Z,96.80
2022-12-27T00:06:38.001Z,95.80
2022-12-27T00:09:06.953Z,96.10
2022-12-27T00:11:35.452Z,96.40
2022-12-27T00:14:05.406Z,96.60
2022-12-27T00:16:34.206Z,96.80
2022-12-27T00:19:03.454Z,96.90
2022-12-27T00:21:31.786Z,97.00
2022-12-27T00:24:01.812Z,97.10
2022-12-27T00:26:32.843Z,97.20
2022-12-27T00:29:01.448Z,97.30
2022-12-27T00:31:31.449Z,97.30
2022-12-27T00:34:02.208Z,97.40
2022-12-27T00:36:32.412Z,97.40
2022-12-27T00:39:02.228Z,97.40
2022-12-27T00:41:31.269Z,97.40
2022-12-27T00:43:59.547Z,97.40
2022-12-27T00:46:27.741Z,97.50
2022-12-27T00:48:57.687Z,97.50
2022-12-27T00:51:26.460Z,97.50
2022-12-27T00:53:55.324Z,97.50
2022-12-27T00:56:27.100Z,97.50
2022-12-27T00:58:55.615Z,97.60
2022-12-27T01:01:25.243Z,97.60
2022-12-27T01:03:54.043Z,97.60
2022-12-27T01:06:23.905Z,97.60
2022-12-27T01:08:52.109Z,97.60
2022-12-27T01:11:20.604Z,97.60
2022-12-27T01:13:50.422Z,97.70
2022-12-27T01:16:21.912Z,97.70
2022-12-27T01:18:50.698Z,97.80
2022-12-27T01:21:21.469Z,97.80
2022-12-27T01:23:50.082Z,97.80
2022-12-27T01:26:20.962Z,97.90
2022-12-27T01:28:51.078Z,97.90
2022-12-27T01:31:21.405Z,98.00
2022-12-27T01:33:50.127Z,98.00
2022-12-27T01:36:19.937Z,98.10
2022-12-27T01:38:49.107Z,98.10
2022-12-27T01:41:36.047Z,98.20
2022-12-27T01:44:49.559Z,98.20
2022-12-27T01:47:23.146Z,98.20
2022-12-27T01:49:58.287Z,98.30
2022-12-27T01:52:29.954Z,98.30
2022-12-27T01:55:04.323Z,98.40
2022-12-27T01:57:32.545Z,98.50
2022-12-27T02:00:02.350Z,98.40
2022-12-27T02:02:30.586Z,98.50
2022-12-27T02:04:58.917Z,98.50
2022-12-27T02:07:32.562Z,98.60
2022-12-27T02:10:02.017Z,98.60
2022-12-27T02:12:30.646Z,99.00
2022-12-27T02:14:59.540Z,98.70
2022-12-27T02:17:30.523Z,98.70
2022-12-27T02:20:02.814Z,98.80
2022-12-27T02:23:26.700Z,98.80
2022-12-27T02:26:19.450Z,98.80
2022-12-27T02:29:15.045Z,98.80
2022-12-27T02:31:48.768Z,98.80
2022-12-27T02:34:22.623Z,98.80
2022-12-27T02:36:53.314Z,98.90
2022-12-27T02:39:22.003Z,98.90
2022-12-27T02:42:07.508Z,98.80
2022-12-27T02:44:55.008Z,98.90
2022-12-27T02:47:42.451Z,98.80
2022-12-27T02:50:29.504Z,98.80
2022-12-27T02:53:07.985Z,98.60
2022-12-27T02:56:13.589Z,98.60
2022-12-27T02:58:50.916Z,98.70
2022-12-27T03:01:45.036Z,98.80
2022-12-27T03:04:27.161Z,99.00
2022-12-27T03:07:15.140Z,99.10
2022-12-27T03:10:07.477Z,99.10
2022-12-27T03:13:05.881Z,99.00
2022-12-27T03:15:56.249Z,98.90
2022-12-27T03:18:34.375Z,98.90
2022-12-27T03:21:20.782Z,98.80
2022-12-27T03:24:07.818Z,98.80
2022-12-27T03:26:38.014Z,98.60
2022-12-27T03:29:25.394Z,98.40
2022-12-27T03:32:14.388Z,98.30
2022-12-27T03:34:48.565Z,98.20
2022-12-27T03:37:37.546Z,98.00
2022-12-27T03:40:09.518Z,98.00
2022-12-27T03:42:58.527Z,97.80
2022-12-27T03:45:48.448Z,97.80
2022-12-27T03:48:18.983Z,97.80
2022-12-27T03:50:55.685Z,97.90
2022-12-27T03:53:27.510Z,98.00
2022-12-27T03:55:55.788Z,98.10
2022-12-27T03:58:24.055Z,98.20
2022-12-27T04:00:52.380Z,98.20
2022-12-27T04:03:20.642Z,98.30
2022-12-27T04:05:50.308Z,98.30
2022-12-27T04:08:36.030Z,98.40
2022-12-27T04:11:21.459Z,98.40
2022-12-27T04:14:06.887Z,98.50
2022-12-27T04:16:52.365Z,98.50
2022-12-27T04:19:37.988Z,98.40
2022-12-27T04:22:25.227Z,98.40
2022-12-27T04:25:10.587Z,98.40
2022-12-27T04:27:56.228Z,98.40
2022-12-27T04:30:41.789Z,98.30
2022-12-27T04:33:27.423Z,98.40
2022-12-27T04:35:55.684Z,98.70
2022-12-27T04:38:25.409Z,99.10
2022-12-27T04:41:11.148Z,99.20
2022-12-27T04:43:56.486Z,99.30
2022-12-27T04:46:43.869Z,99.20
2022-12-27T04:49:33.015Z,99.30
2022-12-27T04:52:19.718Z,99.20
2022-12-27T04:54:58.571Z,98.80
2022-12-27T04:57:27.936Z,98.70
2022-12-27T05:00:13.529Z,98.50
2022-12-27T05:02:42.054Z,98.50
2022-12-27T05:05:11.888Z,98.60
2022-12-27T05:07:57.932Z,98.60
2022-12-27T05:10:45.441Z,98.70
2022-12-27T05:13:31.444Z,98.90
2022-12-27T05:15:59.649Z,99.00
2022-12-27T05:18:28.466Z,99.00
2022-12-27T05:20:56.659Z,99.10
2022-12-27T05:23:42.349Z,99.00
2022-12-27T05:26:11.929Z,98.90
2022-12-27T05:28:40.068Z,98.80
2022-12-27T05:31:08.413Z,98.80
2022-12-27T05:33:36.639Z,98.70
2022-12-27T05:36:05.125Z,98.60
2022-12-27T05:38:33.302Z,98.50
2022-12-27T05:41:01.827Z,98.50
2022-12-27T05:43:32.125Z,98.50
2022-12-27T05:46:04.897Z,98.50
2022-12-27T05:48:33.159Z,98.50
2022-12-27T05:51:05.909Z,98.60
2022-12-27T05:53:34.217Z,98.70
2022-12-27T05:56:02.712Z,98.90
2022-12-27T05:58:32.877Z,98.80
2022-12-27T06:01:01.831Z,98.50
2022-12-27T06:03:30.135Z,98.50
2022-12-27T06:06:02.828Z,98.60
2022-12-27T06:08:31.531Z,98.50
2022-12-27T06:11:04.361Z,98.60
2022-12-27T06:13:34.175Z,98.40
2022-12-27T06:16:03.035Z,98.40
2022-12-27T06:18:32.579Z,98.50
2022-12-27T06:21:06.232Z,98.70
2022-12-27T06:23:34.960Z,98.80
2022-12-27T06:26:06.130Z,98.90
2022-12-27T06:28:36.135Z,98.90
2022-12-27T06:31:04.592Z,98.80
2022-12-27T06:33:33.191Z,98.80
2022-12-27T06:36:06.305Z,98.90
2022-12-27T06:38:34.447Z,98.80
2022-12-27T06:41:03.084Z,98.70
2022-12-27T06:43:31.328Z,98.60
2022-12-27T06:46:02.049Z,98.60
2022-12-27T06:48:30.947Z,98.60
2022-12-27T06:50:59.596Z,98.40
2022-12-27T06:53:27.811Z,98.40
2022-12-27T06:55:55.952Z,98.30
2022-12-27T06:58:24.142Z,98.30
2022-12-27T07:00:52.312Z,98.30
2022-12-27T07:03:22.030Z,98.30
2022-12-27T07:05:50.231Z,98.30
2022-12-27T07:08:18.436Z,98.40
2022-12-27T07:10:46.623Z,98.40
2022-12-27T07:13:14.849Z,98.40
2022-12-27T07:15:43.077Z,98.40
2022-12-27T07:18:11.259Z,98.50
2022-12-27T07:20:40.814Z,98.50
2022-12-27T07:23:11.925Z,98.60
2022-12-27T07:25:42.564Z,98.70
2022-12-27T07:28:10.818Z,98.70
2022-12-27T07:30:41.788Z,98.70
2022-12-27T07:33:10.287Z,98.80
2022-12-27T07:35:43.470Z,98.80
2022-12-27T07:38:14.636Z,98.80
2022-12-27T07:40:42.838Z,98.90
2022-12-27T07:43:10.994Z,99.00
2022-12-27T07:45:39.241Z,99.00
2022-12-27T07:48:07.826Z,99.00
2022-12-27T07:50:36.075Z,99.00
2022-12-27T07:53:04.344Z,99.10
2022-12-27T07:55:34.045Z,99.10
2022-12-27T07:58:02.367Z,99.00
2022-12-27T08:00:30.566Z,98.90
2022-12-27T08:02:58.781Z,98.90
2022-12-27T08:05:27.973Z,98.90
2022-12-27T08:07:57.420Z,98.90
2022-12-27T08:10:25.588Z,98.90
2022-12-27T08:12:55.200Z,98.90
2022-12-27T08:15:23.341Z,98.90
2022-12-27T08:17:51.563Z,98.90
2022-12-27T08:20:19.757Z,98.70
2022-12-27T08:22:47.940Z,98.70
2022-12-27T08:25:16.159Z,98.80
2022-12-27T08:27:44.434Z,98.70
2022-12-27T08:30:15.044Z,98.10
2022-12-27T08:32:43.252Z,97.60
2022-12-27T08:35:50.395Z,97.00
2022-12-27T08:38:02.318Z,96.90
2022-12-27T08:40:30.963Z,97.00
2022-12-27T08:43:00.185Z,97.00
2022-12-27T08:45:29.841Z,97.00
2022-12-27T08:48:00.555Z,96.90
2022-12-27T08:50:29.009Z,97.00
2022-12-27T08:52:58.619Z,97.10
2022-12-27T08:55:26.884Z,96.80
2022-12-27T08:57:58.271Z,96.90
2022-12-27T09:00:27.594Z,96.50
2022-12-27T09:02:58.083Z,96.00
2022-12-27T09:05:28.157Z,95.90
2022-12-27T09:07:56.410Z,95.90
2022-12-27T09:10:25.249Z,96.00
2022-12-27T09:12:53.623Z,96.20
2022-12-27T09:15:21.818Z,96.20
2022-12-27T09:17:50.104Z,96.30
2022-12-27T09:20:19.783Z,96.30
2022-12-27T09:22:48.057Z,95.90
2022-12-27T09:25:16.402Z,95.90
2022-12-27T09:27:44.671Z,95.70
2022-12-27T09:30:13.348Z,95.90
2022-12-27T09:32:41.560Z,95.80
2022-12-27T09:35:10.356Z,95.70
2022-12-27T09:37:40.006Z,95.70
2022-12-27T09:40:10.860Z,95.70
2022-12-27T09:42:56.162Z,95.70
2022-12-27T09:45:27.813Z,95.60
2022-12-27T09:47:58.120Z,95.50
2022-12-27T09:50:29.894Z,95.60
2022-12-27T09:53:03.234Z,95.60
2022-12-27T09:55:39.301Z,95.50
2022-12-27T09:58:33.457Z,95.60
2022-12-27T10:01:02.063Z,95.60
2022-12-27T10:03:31.185Z,95.40
2022-12-27T10:06:07.632Z,95.60
2022-12-27T10:08:43.884Z,95.50
2022-12-27T10:11:37.577Z,94.90
2022-12-27T10:14:24.900Z,94.80
2022-12-27T10:17:02.369Z,93.80
2022-12-27T10:19:45.613Z,93.30
2022-12-27T10:22:26.448Z,93.20
2022-12-27T10:25:00.293Z,92.80
2022-12-27T10:27:31.007Z,92.80
2022-12-27T10:30:01.072Z,93.00
2022-12-27T10:32:29.449Z,93.10
2022-12-27T10:35:02.134Z,92.70
2022-12-27T10:37:31.510Z,93.10
2022-12-27T10:40:10.782Z,93.40
2022-12-27T10:42:43.645Z,92.60
2022-12-27T10:45:34.785Z,92.70
2022-12-27T10:48:20.867Z,92.20
2022-12-27T10:50:55.601Z,92.40
2022-12-27T10:53:40.390Z,92.50
2022-12-27T10:56:29.188Z,92.30
2022-12-27T10:59:12.539Z,92.00
2022-12-27T11:01:41.357Z,92.00
2022-12-27T11:04:20.748Z,92.40
2022-12-27T11:06:52.660Z,93.00
2022-12-27T11:09:31.477Z,93.00
2022-12-27T11:12:22.003Z,92.60
2022-12-27T11:14:59.774Z,92.30
2022-12-27T11:17:34.643Z,91.80
2022-12-27T11:20:17.472Z,91.30
2022-12-27T11:22:48.238Z,91.50
2022-12-27T11:25:17.089Z,91.30
2022-12-27T11:27:50.769Z,90.80
2022-12-27T11:30:29.962Z,90.60
2022-12-27T11:33:03.079Z,90.60
2022-12-27T11:35:35.031Z,90.60
2022-12-27T11:38:03.639Z,90.60
2022-12-27T11:40:34.826Z,90.10
2022-12-27T11:43:10.812Z,89.30
2022-12-27T11:45:43.032Z,89.60
2022-12-27T11:48:26.388Z,89.90
2022-12-27T11:51:31.250Z,88.90
2022-12-27T11:54:29.965Z,88.90
2022-12-27T11:57:11.611Z,88.10
2022-12-27T11:59:55.461Z,88.20
2022-12-27T12:02:46.329Z,87.90
2022-12-27T12:05:48.420Z,87.90
2022-12-27T12:09:13.185Z,88.80
2022-12-27T12:12:00.499Z,88.50
2022-12-27T12:15:21.911Z,88.40
2022-12-27T12:18:27.056Z,88.70
2022-12-27T12:21:25.054Z,88.80
2022-12-27T12:24:38.409Z,89.50
2022-12-27T12:27:46.148Z,89.60
2022-12-27T12:30:39.032Z,89.80
2022-12-27T12:33:36.543Z,89.60
2022-12-27T12:36:37.969Z,90.00
2022-12-27T12:39:19.202Z,89.80
2022-12-27T12:42:10.731Z,89.30
2022-12-27T12:44:50.600Z,89.40
2022-12-27T12:47:39.019Z,89.80
2022-12-27T12:50:29.443Z,90.20
2022-12-27T12:53:26.752Z,90.30
2022-12-27T12:56:11.392Z,90.40
2022-12-27T12:58:53.872Z,90.70
2022-12-27T13:01:51.090Z,90.80
2022-12-27T13:04:58.669Z,90.50
2022-12-27T13:07:47.269Z,90.70
2022-12-27T13:10:44.707Z,91.20
2022-12-27T13:13:23.440Z,91.20
2022-12-27T13:16:02.964Z,90.90
2022-12-27T13:18:45.063Z,90.90
2022-12-27T13:21:23.777Z,91.10
2022-12-27T13:24:07.656Z,91.20
2022-12-27T13:26:49.019Z,91.30
2022-12-27T13:29:51.396Z,91.60
2022-12-27T13:32:35.597Z,91.70
2022-12-27T13:35:24.673Z,91.80
2022-12-27T13:38:12.580Z,91.80
2022-12-27T13:41:18.031Z,91.70
2022-12-27T13:44:23.675Z,91.50
2022-12-27T13:47:42.304Z,91.60
2022-12-27T13:50:45.312Z,91.80
2022-12-27T13:54:07.545Z,91.90
2022-12-27T13:56:54.551Z,92.10
2022-12-27T14:00:01.633Z,92.20
2022-12-27T14:03:31.344Z,92.30
2022-12-27T14:06:22.482Z,92.60
2022-12-27T14:09:29.098Z,92.80
2022-12-27T14:12:34.891Z,93.00
2022-12-27T14:15:08.041Z,93.10
2022-12-27T14:17:47.628Z,93.10
2022-12-27T14:20:54.066Z,93.20
2022-12-27T14:23:49.139Z,93.00
2022-12-27T14:27:12.117Z,93.10
2022-12-27T14:30:28.147Z,92.90
2022-12-27T14:33:51.683Z,92.80
2022-12-27T14:37:08.615Z,92.50
2022-12-27T14:40:48.685Z,92.60
2022-12-27T14:44:11.679Z,92.80
2022-12-27T14:47:07.393Z,92.80
2022-12-27T14:50:01.697Z,93.00
2022-12-27T14:53:00.735Z,93.10
2022-12-27T14:55:39.635Z,93.20
2022-12-27T14:58:27.522Z,93.40
2022-12-27T15:01:06.093Z,93.50
2022-12-27T15:03:53.187Z,93.50
2022-12-27T15:06:33.997Z,93.60
2022-12-27T15:09:11.309Z,93.60
2022-12-27T15:11:55.829Z,93.50
2022-12-27T15:14:38.488Z,93.50
2022-12-27T15:17:17.931Z,93.60
2022-12-27T15:20:06.715Z,93.80
2022-12-27T15:22:44.526Z,93.80
2022-12-27T15:25:21.789Z,93.90
2022-12-27T15:27:56.134Z,93.90
2022-12-27T15:30:26.597Z,94.00
2022-12-27T15:33:02.251Z,94.10
2022-12-27T15:35:48.737Z,96.40
2022-12-27T15:38:18.767Z,94.40
2022-12-27T15:41:13.077Z,93.70
2022-12-27T15:44:09.571Z,94.00
2022-12-27T15:47:19.243Z,94.20
2022-12-27T15:50:13.125Z,94.50
2022-12-27T15:52:53.790Z,94.50
2022-12-27T15:55:31.793Z,94.60
2022-12-27T15:58:11.229Z,94.70
2022-12-27T16:00:40.583Z,94.80
2022-12-27T16:03:33.073Z,94.70
2022-12-27T16:06:02.504Z,94.80
2022-12-27T16:08:41.713Z,95.10
2022-12-27T16:11:12.118Z,94.90
2022-12-27T16:13:46.809Z,94.90
2022-12-27T16:16:57.458Z,95.00
2022-12-27T16:19:45.957Z,95.00
2022-12-27T16:22:24.261Z,95.10
2022-12-27T16:24:54.069Z,95.20
2022-12-27T16:27:29.533Z,95.20
2022-12-27T16:29:58.543Z,95.30
2022-12-27T16:32:28.790Z,95.40
2022-12-27T16:35:11.505Z,95.40
2022-12-27T16:37:45.303Z,95.40
2022-12-27T16:40:37.474Z,95.60
2022-12-27T16:43:45.399Z,95.70
2022-12-27T16:46:35.771Z,95.90
2022-12-27T16:49:41.984Z,96.00
2022-12-27T16:52:28.773Z,95.90
2022-12-27T16:55:03.784Z,95.90
2022-12-27T16:57:40.310Z,96.00
2022-12-27T17:00:37.165Z,96.10
2022-12-27T17:03:45.671Z,96.10
2022-12-27T17:06:50.972Z,97.50
2022-12-27T17:09:42.660Z,96.90
2022-12-27T17:12:28.831Z,95.90
2022-12-27T17:15:04.812Z,95.90
2022-12-27T17:17:33.199Z,96.50
2022-12-27T17:20:04.063Z,96.70
2022-12-27T17:22:35.241Z,96.40
2022-12-27T17:25:04.234Z,96.40
2022-12-27T17:27:47.711Z,96.50
2022-12-27T17:30:24.928Z,96.50
2022-12-27T17:33:19.453Z,96.60
2022-12-27T17:36:00.920Z,96.60
2022-12-27T17:38:39.687Z,96.60
2022-12-27T17:41:16.271Z,96.70
2022-12-27T17:44:10.058Z,96.70
2022-12-27T17:46:47.911Z,96.80
2022-12-27T17:49:16.455Z,96.90
2022-12-27T17:52:06.815Z,96.90
2022-12-27T17:54:52.211Z,96.90
2022-12-27T17:57:39.205Z,97.00
2022-12-27T18:00:21.935Z,97.10
2022-12-27T18:02:52.036Z,97.10
2022-12-27T18:05:27.117Z,97.30
2022-12-27T18:08:02.143Z,97.30
2022-12-27T18:10:31.625Z,97.40
2022-12-27T18:13:02.082Z,97.50
2022-12-27T18:15:34.111Z,97.50
2022-12-27T18:18:04.228Z,97.60
2022-12-27T18:20:35.115Z,97.60
2022-12-27T18:23:15.324Z,97.70
2022-12-27T18:25:52.252Z,97.80
2022-12-27T18:28:23.880Z,97.90
2022-12-27T18:30:58.420Z,98.00
2022-12-27T18:33:32.217Z,98.00
2022-12-27T18:36:02.036Z,98.10
2022-12-27T18:38:33.678Z,98.10
2022-12-27T18:41:04.353Z,98.20
2022-12-27T18:43:33.666Z,98.30
2022-12-27T18:46:02.940Z,98.30
2022-12-27T18:48:35.404Z,98.30
2022-12-27T18:51:04.147Z,98.30
2022-12-27T18:53:35.570Z,98.60
2022-12-27T18:56:07.156Z,98.40
2022-12-27T18:58:36.043Z,98.40
2022-12-27T19:01:06.247Z,98.60
2022-12-27T19:03:40.557Z,98.50
2022-12-27T19:06:11.089Z,98.30
2022-12-27T19:08:40.818Z,98.30
2022-12-27T19:11:09.149Z,98.30
2022-12-27T19:13:43.537Z,98.50
2022-12-27T19:16:24.356Z,98.50
2022-12-27T19:18:56.270Z,98.70
2022-12-27T19:21:31.361Z,98.70
2022-12-27T19:23:59.520Z,98.80
2022-12-27T19:26:32.443Z,98.90
2022-12-27T19:29:07.356Z,99.00
2022-12-27T19:31:36.322Z,99.20
2022-12-27T19:34:09.580Z,99.10
2022-12-27T19:36:39.553Z,99.10
2022-12-27T19:39:09.552Z,99.10
2022-12-27T19:41:38.307Z,99.10
2022-12-27T19:44:07.102Z,99.20
2022-12-27T19:46:35.328Z,99.20
2022-12-27T19:49:40.178Z,99.40
2022-12-27T19:51:55.779Z,99.50
2022-12-27T19:54:25.084Z,99.60
2022-12-27T19:56:53.429Z,99.70
2022-12-27T19:59:24.041Z,99.70
2022-12-27T20:01:54.094Z,99.80
2022-12-27T20:04:24.217Z,99.90
2022-12-27T20:06:54.546Z,99.90
2022-12-27T20:09:22.755Z,99.90
2022-12-27T20:11:51.252Z,99.90
2022-12-27T20:14:19.436Z,99.90
2022-12-27T20:16:48.322Z,99.90
2022-12-27T20:19:20.318Z,99.90
2022-12-27T20:21:50.035Z,99.90
2022-12-27T20:24:18.309Z,99.90
2022-12-27T20:26:46.534Z,99.90
2022-12-27T20:29:15.357Z,99.90
2022-12-27T20:31:46.208Z,99.90
2022-12-27T20:34:14.514Z,99.90
2022-12-27T20:36:42.835Z,99.90
2022-12-27T20:39:12.463Z,99.90
2022-12-27T20:41:40.754Z,99.90
2022-12-27T20:44:09.036Z,99.90
2022-12-27T20:46:37.261Z,99.90
2022-12-27T20:49:07.092Z,99.90
2022-12-27T20:51:35.301Z,99.90
2022-12-27T20:54:04.393Z,99.90
2022-12-27T20:56:35.230Z,99.90
2022-12-27T20:59:03.731Z,99.90
2022-12-27T21:01:32.090Z,99.90
2022-12-27T21:04:00.391Z,99.90
2022-12-27T21:06:29.764Z,99.90
2022-12-27T21:08:59.609Z,99.90
2022-12-27T21:11:30.960Z,99.90
2022-12-27T21:14:01.463Z,99.90
2022-12-27T21:16:31.546Z,99.90
2022-12-27T21:19:03.369Z,99.90
2022-12-27T21:21:32.603Z,99.90
2022-12-27T21:24:01.325Z,99.90
2022-12-27T21:26:31.150Z,99.90
2022-12-27T21:29:01.467Z,99.90
2022-12-27T21:31:30.391Z,99.90
2022-12-27T21:33:59.286Z,99.90
2022-12-27T21:36:31.444Z,99.90
2022-12-27T21:38:59.841Z,99.90
2022-12-27T21:41:29.590Z,99.90
2022-12-27T21:43:57.948Z,99.90
2022-12-27T21:46:28.816Z,99.90
2022-12-27T21:48:58.414Z,99.90
2022-12-27T21:51:27.173Z,99.90
2022-12-27T21:53:55.917Z,99.90
2022-12-27T21:56:24.677Z,99.90
2022-12-27T21:58:55.370Z,99.90
2022-12-27T22:01:25.441Z,99.90
2022-12-27T22:03:57.181Z,99.90
2022-12-27T22:06:27.277Z,99.90
2022-12-27T22:08:57.790Z,99.90
2022-12-27T22:11:27.199Z,99.90
2022-12-27T22:13:55.834Z,99.90
2022-12-27T22:16:25.402Z,99.90
2022-12-27T22:18:56.140Z,99.90
2022-12-27T22:21:25.636Z,99.90
2022-12-27T22:23:55.648Z,99.90
2022-12-27T22:26:26.501Z,99.90
2022-12-27T22:28:55.064Z,99.90
2022-12-27T22:31:25.939Z,99.90
2022-12-27T22:33:55.554Z,99.90
2022-12-27T22:36:25.891Z,99.90
2022-12-27T22:38:55.670Z,99.90
2022-12-27T22:41:26.071Z,99.90
2022-12-27T22:43:55.654Z,99.90
2022-12-27T22:46:24.466Z,99.90
2022-12-27T22:48:53.569Z,99.90
2022-12-27T22:51:25.016Z,99.90
2022-12-27T22:53:53.320Z,99.90
2022-12-27T22:56:23.344Z,99.90
2022-12-27T22:58:51.710Z,99.90
2022-12-27T23:01:21.601Z,99.90
2022-12-27T23:03:50.131Z,99.90
2022-12-27T23:06:18.946Z,99.90
2022-12-27T23:08:49.120Z,99.90
2022-12-27T23:11:18.798Z,99.90
2022-12-27T23:13:47.107Z,99.90
2022-12-27T23:16:15.812Z,99.90
2022-12-27T23:18:44.056Z,99.90
2022-12-27T23:21:20.948Z,99.90
2022-12-27T23:23:53.833Z,99.90
2022-12-27T23:26:24.005Z,99.90
2022-12-27T23:28:53.905Z,99.90
2022-12-27T23:31:23.699Z,99.90
2022-12-27T23:33:52.527Z,99.90
2022-12-27T23:36:21.217Z,99.90
2022-12-27T23:38:49.941Z,99.90
2022-12-27T23:41:21.098Z,99.90
2022-12-27T23:43:52.832Z,99.90
2022-12-27T23:46:25.036Z,99.90
2022-12-27T23:48:53.848Z,99.90
2022-12-27T23:51:22.733Z,99.90
2022-12-27T23:53:51.077Z,99.90
2022-12-27T23:56:22.195Z,99.90
2022-12-27T23:58:51.858Z,99.90
